Time;durP1;ratioP1;P1;durP2;ratioP2;P2;SDS_P1;SDS_P2;PMS_P1;PMS_P2;Temp;Humidity;BMP_temperature;BMP_pressure;BME280_temperature;BME280_humidity;BME280_pressure;Samples;Min_cycle;Max_cycle;Signal;HPM_P1;HPM_P2
2023/04/19 00:02:08;;;;;;;6.80;5.20;;;9.60;99.90;;;-141.84;69.87;19476.47;5054074;28;20679;-59
2023/04/19 00:04:37;;;;;;;5.90;5.30;;;9.60;99.90;;;-141.84;70.02;19415.50;5053925;28;20727;-57
2023/04/19 00:07:06;;;;;;;5.77;4.90;;;9.50;99.90;;;-141.84;68.97;19429.75;5053917;28;20642;-57
2023/04/19 00:09:34;;;;;;;7.30;5.47;;;9.40;99.90;;;-141.84;69.33;19456.16;5054038;28;20213;-55
2023/04/19 00:12:04;;;;;;;7.03;5.37;;;9.40;99.90;;;-141.84;69.36;19439.91;5054169;28;20205;-54
2023/04/19 00:14:32;;;;;;;5.80;4.83;;;9.40;99.90;;;-141.84;68.81;19419.59;5053442;28;20720;-56
2023/04/19 00:17:00;;;;;;;6.17;5.27;;;9.40;99.90;;;-141.84;68.25;19446.00;5054003;28;20205;-57
2023/04/19 00:19:28;;;;;;;5.93;5.30;;;9.40;99.90;;;-141.84;67.46;19427.72;5054043;28;20236;-58
2023/04/19 00:21:57;;;;;;;5.90;5.30;;;9.40;99.90;;;-141.84;67.23;19456.16;5053902;28;20666;-59
2023/04/19 00:24:25;;;;;;;5.10;4.60;;;9.40;99.90;;;-141.84;68.45;19460.22;5053656;28;20213;-56
2023/04/19 00:26:53;;;;;;;5.70;5.17;;;9.30;99.90;;;-141.84;67.97;19472.41;5053498;28;20233;-56
2023/04/19 00:29:23;;;;;;;5.87;5.03;;;9.20;99.90;;;-141.84;68.24;19405.34;5053500;28;20593;-58
2023/04/19 00:31:51;;;;;;;8.17;5.40;;;9.20;99.90;;;-141.84;68.44;19423.66;5053480;28;20711;-58
2023/04/19 00:34:20;;;;;;;7.40;5.23;;;9.20;99.90;;;-141.84;67.35;19446.00;5053349;28;20236;-55
2023/04/19 00:36:48;;;;;;;6.37;4.97;;;9.20;99.90;;;-141.84;67.84;19466.31;5053668;28;20551;-53
2023/04/19 00:39:16;;;;;;;7.27;5.07;;;9.20;99.90;;;-141.84;68.49;19417.56;5053610;28;20201;-55
2023/04/19 00:41:44;;;;;;;7.00;6.07;;;9.10;99.90;;;-141.84;68.20;19427.72;5053273;28;20197;-55
2023/04/19 00:44:12;;;;;;;7.80;5.77;;;9.10;99.90;;;-141.84;68.01;19425.69;5053147;28;20194;-58
2023/04/19 00:46:44;;;;;;;5.83;5.20;;;9.10;99.90;;;-141.84;67.26;19437.88;5053476;28;20208;-53
2023/04/19 00:49:12;;;;;;;8.90;5.80;;;9.00;99.90;;;-141.84;67.65;19423.66;5052990;28;20186;-58
2023/04/19 00:51:40;;;;;;;7.27;5.40;;;9.00;99.90;;;-141.84;67.11;19431.78;5053343;28;20205;-56
2023/04/19 00:54:09;;;;;;;8.83;5.97;;;8.90;99.90;;;-141.84;66.66;19421.63;5053161;28;20221;-58
2023/04/19 00:56:38;;;;;;;7.90;5.67;;;8.90;99.90;;;-141.84;67.82;19405.34;5052927;28;20201;-57
2023/04/19 00:59:07;;;;;;;7.70;6.17;;;8.80;99.90;;;-141.84;67.87;19429.75;5052879;28;20209;-56
2023/04/19 01:01:36;;;;;;;6.23;5.63;;;8.80;99.90;;;-141.84;67.94;19437.88;5052952;28;20208;-58
2023/04/19 01:04:06;;;;;;;6.87;6.00;;;8.70;99.90;;;-141.84;67.73;19413.47;5053141;28;20236;-57
2023/04/19 01:06:37;;;;;;;7.17;5.80;;;8.70;99.90;;;-141.84;67.46;19411.44;5053353;28;20263;-55
2023/04/19 01:09:05;;;;;;;8.47;5.80;;;8.70;99.90;;;-141.84;68.42;19427.72;5052710;28;20685;-56
2023/04/19 01:11:34;;;;;;;7.37;5.77;;;8.70;99.90;;;-141.84;68.33;19397.22;5052973;28;20213;-55
2023/04/19 01:14:02;;;;;;;6.83;5.50;;;8.70;99.90;;;-141.84;68.44;19391.13;5052679;28;20377;-56
2023/04/19 01:16:32;;;;;;;8.67;6.40;;;8.70;99.90;;;-141.84;68.24;19415.50;5052664;28;20205;-57
2023/04/19 01:19:00;;;;;;;6.73;6.03;;;8.70;99.90;;;-141.84;69.01;19389.09;5052843;28;20275;-56
2023/04/19 01:21:31;;;;;;;8.23;6.17;;;8.60;99.90;;;-141.84;69.10;19354.56;5049044;28;20218;-57
2023/04/19 01:24:00;;;;;;;8.13;6.10;;;8.50;99.90;;;-141.84;68.89;19403.31;5032814;28;20206;-57
2023/04/19 01:26:29;;;;;;;7.97;6.60;;;8.60;99.90;;;-141.84;68.99;19380.97;5032268;28;20586;-55
2023/04/19 01:28:57;;;;;;;10.07;6.10;;;8.60;99.90;;;-141.84;68.71;19399.25;5032530;28;20217;-56
2023/04/19 01:31:25;;;;;;;6.97;6.17;;;8.60;99.90;;;-141.84;69.78;19397.22;5032260;28;20572;-58
2023/04/19 01:33:53;;;;;;;7.37;6.23;;;8.50;99.90;;;-141.84;69.56;19383.00;5032359;28;20770;-56
2023/04/19 01:36:21;;;;;;;7.83;5.97;;;8.50;99.90;;;-141.84;69.77;19391.13;5032296;28;20670;-55
2023/04/19 01:38:50;;;;;;;7.43;5.53;;;8.40;99.90;;;-141.84;70.01;19374.88;5032571;28;20214;-56
2023/04/19 01:41:21;;;;;;;6.57;5.83;;;8.40;99.90;;;-141.84;69.20;19383.00;5032400;28;20232;-57
2023/04/19 01:43:49;;;;;;;7.43;5.93;;;8.40;99.90;;;-141.84;69.46;19385.03;5032331;28;20189;-56
2023/04/19 01:46:17;;;;;;;6.93;5.77;;;8.40;99.90;;;-141.84;69.93;19380.97;5032298;28;20209;-55
2023/04/19 01:48:45;;;;;;;6.77;6.07;;;8.40;99.90;;;-141.84;70.70;19328.13;5032136;28;20201;-55
2023/04/19 01:51:16;;;;;;;7.63;5.90;;;8.20;99.90;;;-141.84;70.80;19330.16;5032109;28;20214;-55
2023/04/19 01:53:44;;;;;;;8.27;6.10;;;8.20;99.90;;;-141.84;70.49;19360.66;5031785;28;20214;-56
2023/04/19 01:56:12;;;;;;;8.67;6.17;;;8.20;99.90;;;-141.84;70.62;19374.88;5031728;28;20213;-56
2023/04/19 01:58:41;;;;;;;7.97;5.80;;;8.20;99.90;;;-141.84;70.97;19340.31;5031757;28;20573;-54
2023/04/19 02:01:11;;;;;;;7.13;6.17;;;8.10;99.90;;;-141.84;70.99;19366.75;5031794;28;20208;-55
2023/04/19 02:03:39;;;;;;;7.77;6.30;;;8.20;99.90;;;-141.84;71.06;19334.22;5032189;28;20202;-57
2023/04/19 02:06:12;;;;;;;8.63;5.93;;;8.10;99.90;;;-141.84;71.90;19342.34;5032239;28;20305;-56
2023/04/19 02:08:41;;;;;;;7.63;6.57;;;8.00;99.90;;;-141.84;71.20;19364.72;5032167;28;20193;-57
2023/04/19 02:11:13;;;;;;;8.60;7.53;;;8.00;99.90;;;-141.84;71.58;19332.19;5031920;28;20194;-56
2023/04/19 02:13:43;;;;;;;9.53;7.37;;;8.00;99.90;;;-141.84;71.56;19340.31;5031800;28;20222;-57
2023/04/19 02:16:11;;;;;;;10.07;7.20;;;7.90;99.90;;;-141.84;71.50;19346.44;5031805;28;20198;-57
2023/04/19 02:18:40;;;;;;;9.87;7.23;;;7.90;99.90;;;-141.84;72.44;19285.47;5031756;28;20260;-58
2023/04/19 02:21:09;;;;;;;11.67;7.20;;;7.80;99.90;;;-141.84;72.51;19307.81;5032238;28;20198;-57
2023/04/19 02:23:38;;;;;;;11.00;7.20;;;7.80;99.90;;;-141.84;72.53;19297.66;5031662;28;20206;-53
2023/04/19 02:26:06;;;;;;;10.20;6.93;;;7.70;99.90;;;-141.84;73.30;19285.47;5031808;28;20234;-56
2023/04/19 02:28:34;;;;;;;11.73;6.93;;;7.60;99.90;;;-141.84;73.54;19317.97;5032205;28;20317;-55
2023/04/19 02:31:07;;;;;;;10.83;7.87;;;7.60;99.90;;;-141.84;73.41;19265.13;5012267;28;20202;-56
2023/04/19 02:33:35;;;;;;;9.83;6.97;;;7.60;99.90;;;-141.84;72.85;19317.97;5012042;28;20195;-57
2023/04/19 02:36:04;;;;;;;9.27;7.50;;;7.60;99.90;;;-141.84;73.36;19277.34;5012031;28;20252;-58
2023/04/19 02:38:32;;;;;;;10.40;7.77;;;7.60;99.90;;;-141.84;74.45;19289.53;5012088;28;20209;-55
2023/04/19 02:41:03;;;;;;;12.83;8.63;;;7.50;99.90;;;-141.84;74.24;19273.28;5012001;28;20207;-54
2023/04/19 02:43:31;;;;;;;10.83;7.87;;;7.50;99.90;;;-141.84;73.86;19287.50;5011852;28;20182;-57
2023/04/19 02:45:59;;;;;;;10.90;8.53;;;7.50;99.90;;;-141.84;73.25;19285.47;5011453;28;20199;-55
2023/04/19 02:48:29;;;;;;;10.90;7.83;;;7.50;99.90;;;-141.84;73.16;19303.75;5011560;28;20207;-57
2023/04/19 02:50:57;;;;;;;10.20;7.90;;;7.50;99.90;;;-141.84;73.83;19283.44;5011919;28;20214;-55
2023/04/19 02:53:26;;;;;;;10.90;7.73;;;7.50;99.90;;;-141.84;73.49;19269.22;5011931;28;20207;-54
2023/04/19 02:55:54;;;;;;;9.20;7.77;;;7.40;99.90;;;-141.84;73.64;19289.53;5011823;28;20222;-54
2023/04/19 02:58:22;;;;;;;12.00;7.63;;;7.30;99.90;;;-141.84;73.41;19246.84;5031363;28;20452;-57
2023/04/19 03:00:50;;;;;;;10.83;8.07;;;7.40;99.90;;;-141.84;73.78;19232.63;5031076;28;20646;-57
2023/04/19 03:03:18;;;;;;;10.27;8.07;;;7.30;99.90;;;-141.84;74.37;19273.28;5031165;28;20678;-57
2023/04/19 03:05:48;;;;;;;12.83;7.77;;;7.20;99.90;;;-141.84;73.91;19281.41;5031535;28;20372;-56
2023/04/19 03:08:16;;;;;;;9.93;7.30;;;7.20;99.90;;;-141.84;73.95;19254.97;5032299;28;20220;-58
2023/04/19 03:10:44;;;;;;;11.67;7.47;;;7.20;99.90;;;-141.84;73.35;19248.88;5035350;28;20232;-58
2023/04/19 03:13:13;;;;;;;10.43;7.17;;;7.20;99.90;;;-141.84;73.40;19238.72;5035162;28;20635;-57
2023/04/19 03:15:41;;;;;;;12.80;7.87;;;7.20;99.90;;;-141.84;72.93;19242.78;5034972;28;20217;-54
2023/04/19 03:18:09;;;;;;;10.03;7.33;;;7.20;99.90;;;-141.84;72.71;19261.06;5035107;28;20237;-53
2023/04/19 03:20:37;;;;;;;10.13;7.83;;;7.20;99.90;;;-141.84;72.43;19281.41;5035100;28;20770;-55
2023/04/19 03:23:07;;;;;;;9.37;7.53;;;7.20;99.90;;;-141.84;72.10;19283.44;5035118;28;20209;-58
2023/04/19 03:25:35;;;;;;;11.10;8.20;;;7.30;99.90;;;-141.84;72.20;19254.97;5034792;28;20234;-58
2023/04/19 03:28:03;;;;;;;10.10;6.63;;;7.20;99.90;;;-141.84;72.75;19254.97;5034879;28;20229;-54
2023/04/19 03:30:31;;;;;;;10.20;7.27;;;7.20;99.90;;;-141.84;73.20;19232.63;5034509;28;20205;-57
2023/04/19 03:32:59;;;;;;;9.07;6.83;;;7.10;99.90;;;-141.84;72.96;19263.09;5034900;28;20202;-56
2023/04/19 03:35:29;;;;;;;8.63;7.37;;;7.10;99.90;;;-141.84;71.90;19244.81;5034817;28;20697;-53
2023/04/19 03:37:58;;;;;;;9.33;6.57;;;7.20;99.90;;;-141.84;71.35;19305.78;5034884;28;20618;-59
2023/04/19 03:40:27;;;;;;;9.10;6.23;;;7.20;99.90;;;-141.84;71.57;19279.38;5034820;28;20585;-56
2023/04/19 03:42:56;;;;;;;9.53;6.63;;;7.20;99.90;;;-141.84;71.26;19299.69;5034584;28;20202;-54
2023/04/19 03:45:24;;;;;;;11.47;6.80;;;7.20;99.90;;;-141.84;70.87;19287.50;5034515;28;20194;-56
2023/04/19 03:47:52;;;;;;;8.57;6.07;;;7.10;99.90;;;-141.84;70.80;19295.63;5034611;28;20210;-57
2023/04/19 03:50:20;;;;;;;8.00;6.03;;;7.10;99.90;;;-141.84;70.36;19259.03;5034677;28;20205;-55
2023/04/19 03:52:49;;;;;;;8.43;6.27;;;7.10;99.90;;;-141.84;70.26;19269.22;5034554;28;20206;-55
2023/04/19 03:55:17;;;;;;;6.57;5.93;;;7.10;99.90;;;-141.84;69.36;19261.06;5034442;28;20222;-55
2023/04/19 03:57:46;;;;;;;8.63;6.10;;;7.10;99.90;;;-141.84;69.99;19271.25;5033938;28;20209;-57
2023/04/19 04:00:16;;;;;;;8.40;5.33;;;7.00;99.90;;;-141.84;69.63;19265.13;5034239;28;20210;-57
2023/04/19 04:02:44;;;;;;;7.23;5.47;;;7.10;99.90;;;-141.84;69.09;19297.66;5034389;28;20205;-55
2023/04/19 04:05:12;;;;;;;9.87;5.93;;;7.10;99.90;;;-141.84;69.42;19275.31;5034298;28;20201;-56
2023/04/19 04:07:41;;;;;;;8.70;5.60;;;7.00;99.90;;;-141.84;68.73;19283.44;5034291;28;20643;-58
2023/04/19 04:10:09;;;;;;;7.63;4.97;;;7.00;99.90;;;-141.84;68.56;19283.44;5034276;28;20209;-55
2023/04/19 04:12:37;;;;;;;7.07;5.00;;;7.00;99.90;;;-141.84;67.99;19297.66;5033908;28;20245;-60
2023/04/19 04:15:09;;;;;;;7.70;5.30;;;7.00;99.90;;;-141.84;67.37;19313.91;5034018;28;20223;-56
2023/04/19 04:17:37;;;;;;;5.37;4.20;;;7.00;99.90;;;-141.84;66.87;19295.63;5035083;28;20213;-54
2023/04/19 04:20:10;;;;;;;6.90;4.70;;;7.10;99.90;;;-141.84;67.14;19267.16;5034360;28;20759;-57
2023/04/19 04:22:42;;;;;;;5.87;4.63;;;7.00;99.90;;;-141.84;67.68;19281.41;5034094;28;20189;-56
2023/04/19 04:25:11;;;;;;;4.87;3.93;;;6.90;99.90;;;-141.84;66.17;19309.84;5033791;28;20202;-54
2023/04/19 04:27:39;;;;;;;5.83;4.53;;;7.00;99.90;;;-141.84;65.23;19334.22;5033871;28;20205;-56
2023/04/19 04:30:10;;;;;;;5.53;4.53;;;7.10;99.90;;;-141.84;65.77;19285.47;5033595;28;20209;-57
2023/04/19 04:32:39;;;;;;;4.70;4.20;;;7.00;99.90;;;-141.84;64.96;19309.84;5034193;28;20194;-55
2023/04/19 04:35:10;;;;;;;5.73;4.20;;;7.00;99.90;;;-141.84;65.23;19297.66;5033831;28;20228;-57
2023/04/19 04:37:39;;;;;;;7.43;4.43;;;7.00;99.90;;;-141.84;65.53;19301.72;5033853;28;20202;-56
2023/04/19 04:40:08;;;;;;;5.97;4.53;;;7.10;99.90;;;-141.84;64.94;19289.53;5033473;28;20566;-54
2023/04/19 04:42:37;;;;;;;9.43;4.00;;;7.00;99.90;;;-141.84;64.62;19330.16;5033390;28;20667;-57
2023/04/19 04:45:09;;;;;;;5.80;4.10;;;7.00;99.90;;;-141.84;64.77;19293.59;5033388;28;20201;-57
2023/04/19 04:47:37;;;;;;;5.87;4.27;;;7.00;99.90;;;-141.84;64.07;19326.09;5033476;28;20194;-56
2023/04/19 04:50:08;;;;;;;5.70;3.80;;;7.10;99.90;;;-141.84;63.88;19334.22;5033270;28;20296;-55
2023/04/19 04:52:36;;;;;;;5.63;3.90;;;7.10;99.90;;;-141.84;63.80;19317.97;5033605;28;20215;-58
2023/04/19 04:55:06;;;;;;;6.53;3.97;;;7.10;99.90;;;-141.84;63.85;19283.44;5033244;28;20337;-55
2023/04/19 04:57:34;;;;;;;6.53;4.00;;;7.10;99.90;;;-141.84;63.50;19360.66;5033448;28;20202;-58
2023/04/19 05:00:03;;;;;;;5.27;3.47;;;7.10;99.90;;;-141.84;62.42;19328.13;5032762;28;20581;-56
2023/04/19 05:02:33;;;;;;;4.13;3.33;;;7.20;99.90;;;-141.84;62.21;19356.59;5033334;28;20210;-57
2023/04/19 05:05:02;;;;;;;7.17;4.07;;;7.20;99.90;;;-141.84;61.33;19372.84;5033016;28;20198;-57
2023/04/19 05:07:30;;;;;;;4.83;3.53;;;7.30;99.90;;;-141.84;61.17;19354.56;5033223;28;20206;-56
2023/04/19 05:09:58;;;;;;;4.53;3.60;;;7.20;99.90;;;-141.84;59.99;19368.78;5033086;28;20198;-56
2023/04/19 05:12:26;;;;;;;15.80;3.83;;;7.30;99.90;;;-141.84;60.73;19354.56;5033015;28;20283;-55
2023/04/19 05:14:54;;;;;;;5.13;3.53;;;7.30;99.90;;;-141.84;60.24;19352.53;5032215;28;20573;-56
2023/04/19 05:17:22;;;;;;;3.93;3.20;;;7.30;99.90;;;-141.84;59.18;19385.03;5032786;28;20218;-58
2023/04/19 05:19:52;;;;;;;3.50;3.07;;;7.30;99.90;;;-141.84;58.20;19366.75;5032487;28;20573;-56
2023/04/19 05:22:20;;;;;;;7.07;3.40;;;7.50;99.90;;;-141.84;59.35;19380.97;5032795;28;20198;-56
2023/04/19 05:24:49;;;;;;;5.70;3.00;;;7.50;99.90;;;-141.84;57.00;19421.63;5032770;28;20202;-55
2023/04/19 05:27:17;;;;;;;3.30;3.00;;;7.50;99.90;;;-141.84;55.68;19395.19;5032215;28;20242;-54
2023/04/19 05:29:46;;;;;;;2.53;2.20;;;7.40;99.90;;;-141.84;54.68;19407.38;5032197;28;20214;-55
2023/04/19 05:32:14;;;;;;;4.77;2.80;;;7.30;99.90;;;-141.84;54.34;19448.03;5031785;28;20206;-54
2023/04/19 05:34:42;;;;;;;3.40;2.50;;;7.30;99.90;;;-141.84;53.97;19448.03;5032646;28;20206;-56
2023/04/19 05:37:11;;;;;;;3.57;2.60;;;7.40;99.90;;;-141.84;53.84;19421.63;5032205;28;20731;-55
2023/04/19 05:39:40;;;;;;;2.87;2.40;;;7.40;99.90;;;-141.84;53.70;19429.75;5032528;28;20322;-54
2023/04/19 05:42:11;;;;;;;4.10;2.70;;;7.40;99.90;;;-141.84;53.63;19439.91;5032464;28;20190;-56
2023/04/19 05:44:39;;;;;;;4.23;2.60;;;7.40;99.90;;;-141.84;53.70;19419.59;5032070;28;20205;-57
2023/04/19 05:47:07;;;;;;;4.90;2.67;;;7.30;99.90;;;-141.84;53.15;19439.91;5031986;28;20702;-57
2023/04/19 05:49:35;;;;;;;4.10;2.83;;;7.40;99.90;;;-141.84;52.63;19452.09;5032050;28;20205;-54
2023/04/19 05:52:04;;;;;;;4.80;2.60;;;7.50;99.90;;;-141.84;52.49;19476.47;5031919;28;20568;-55
2023/04/19 05:54:34;;;;;;;3.73;3.07;;;7.50;99.90;;;-141.84;53.21;19460.22;5032204;28;20209;-58
2023/04/19 05:57:03;;;;;;;3.93;2.90;;;7.60;99.90;;;-141.84;53.47;19480.53;5031831;28;20682;-56
2023/04/19 05:59:31;;;;;;;2.90;2.60;;;7.70;99.90;;;-141.84;53.41;19496.81;5031537;28;20202;-57
2023/04/19 06:02:00;;;;;;;4.03;2.83;;;7.70;99.90;;;-141.84;53.86;19474.44;5031981;28;20226;-57
2023/04/19 06:04:28;;;;;;;4.43;2.60;;;7.70;99.90;;;-141.84;53.16;19517.13;5032034;28;20248;-56
2023/04/19 06:06:57;;;;;;;4.00;2.50;;;7.80;99.90;;;-141.84;52.62;19511.03;5031938;28;20202;-59
2023/04/19 06:09:25;;;;;;;3.63;2.47;;;7.90;99.90;;;-141.84;52.34;19509.00;5031948;28;20206;-57
2023/04/19 06:11:55;;;;;;;4.37;2.50;;;8.00;99.90;;;-141.84;52.23;19509.00;5031903;28;20519;-55
2023/04/19 06:14:24;;;;;;;3.13;2.83;;;7.90;99.90;;;-141.84;51.72;19515.09;5031943;28;20277;-57
2023/04/19 06:16:52;;;;;;;4.30;2.70;;;7.90;99.90;;;-141.84;51.65;19565.91;5032239;28;20214;-56
2023/04/19 06:19:20;;;;;;;3.83;2.77;;;8.00;99.90;;;-141.84;52.06;19533.38;5031885;28;20208;-56
2023/04/19 06:21:48;;;;;;;2.63;2.37;;;8.00;99.90;;;-141.84;51.79;19565.91;5031762;28;20213;-57
2023/04/19 06:24:17;;;;;;;3.83;2.60;;;8.00;99.90;;;-141.84;51.54;19561.84;5031841;28;20204;-58
2023/04/19 06:26:47;;;;;;;4.43;2.53;;;8.10;99.90;;;-141.84;52.19;19515.09;5031360;28;20569;-57
2023/04/19 06:29:19;;;;;;;3.33;2.70;;;8.20;99.90;;;-141.84;51.95;19517.13;5031642;28;20206;-57
2023/04/19 06:31:47;;;;;;;4.83;2.37;;;8.10;99.90;;;-141.84;51.94;19537.44;5031715;28;20193;-68
2023/04/19 06:34:15;;;;;;;3.60;2.20;;;8.20;99.90;;;-141.84;52.29;19521.19;5031814;28;20202;-69
2023/04/19 06:36:44;;;;;;;2.53;2.23;;;8.10;99.90;;;-141.84;52.75;19476.47;5028408;28;20577;-66
2023/04/19 06:39:12;;;;;;;3.50;2.60;;;8.00;99.90;;;-141.84;52.69;19484.59;5030739;28;20201;-65
2023/04/19 06:41:40;;;;;;;2.67;2.23;;;8.00;99.90;;;-141.84;52.79;19474.44;5031157;28;20202;-65
2023/04/19 06:44:08;;;;;;;2.93;2.60;;;8.00;99.90;;;-141.84;52.96;19490.72;5035085;28;20232;-65
2023/04/19 06:46:38;;;;;;;3.87;2.57;;;7.90;99.90;;;-141.84;53.51;19517.13;5035064;28;20201;-65
2023/04/19 06:49:06;;;;;;;3.70;2.60;;;8.00;99.90;;;-141.84;53.37;19509.00;5035365;28;20198;-66
2023/04/19 06:51:34;;;;;;;3.93;2.50;;;8.00;99.90;;;-141.84;52.53;19482.56;5035470;28;20232;-65
2023/04/19 06:54:03;;;;;;;2.73;2.33;;;8.10;99.90;;;-141.84;53.34;19517.13;5034973;28;20202;-66
2023/04/19 06:56:44;;;;;;;2.77;2.30;;;8.00;99.90;;;-141.84;52.82;19535.41;5035166;28;20228;-66
2023/04/19 06:59:15;;;;;;;2.90;2.60;;;8.00;99.90;;;-141.84;52.66;19484.59;5035115;28;20213;-65
2023/04/19 07:01:45;;;;;;;4.23;2.30;;;8.00;99.90;;;-141.84;53.02;19500.88;5035104;28;20232;-65
2023/04/19 07:04:14;;;;;;;4.77;2.97;;;8.00;99.90;;;-141.84;53.72;19464.28;5035242;28;20607;-65
2023/04/19 07:06:44;;;;;;;3.27;2.50;;;8.00;99.90;;;-141.84;53.41;19494.78;5034619;28;20284;-65
2023/04/19 07:09:12;;;;;;;2.33;2.10;;;7.90;99.90;;;-141.84;53.02;19500.88;5035023;28;20559;-54
2023/04/19 07:11:40;;;;;;;3.57;2.37;;;8.00;99.90;;;-141.84;53.25;19513.06;5034949;28;20205;-55
2023/04/19 07:14:08;;;;;;;3.23;2.33;;;8.00;99.90;;;-141.84;54.23;19472.41;5034686;28;20214;-57
2023/04/19 07:16:36;;;;;;;4.90;2.77;;;8.00;99.90;;;-141.84;54.49;19472.41;5034277;28;20225;-55
2023/04/19 07:19:06;;;;;;;3.40;2.43;;;8.00;99.90;;;-141.84;54.31;19523.22;5034775;28;20238;-54
2023/04/19 07:21:34;;;;;;;3.83;2.40;;;7.90;99.90;;;-141.84;54.04;19531.34;5034612;28;20693;-51
2023/04/19 07:24:03;;;;;;;3.80;2.53;;;8.10;99.90;;;-141.84;53.27;19590.28;5034454;28;20201;-55
2023/04/19 07:26:31;;;;;;;5.33;2.43;;;8.30;99.90;;;-141.84;51.04;19643.13;5033848;28;20225;-56
2023/04/19 07:28:59;;;;;;;3.97;2.50;;;8.60;99.90;;;-141.84;50.54;19679.72;5034324;28;20202;-55
2023/04/19 07:31:28;;;;;;;3.43;2.30;;;9.00;99.90;;;-141.84;50.09;19695.97;5034565;28;20213;-56
2023/04/19 07:33:56;;;;;;;2.80;2.50;;;9.30;99.90;;;-141.84;50.54;19659.38;5034737;28;20204;-58
2023/04/19 07:36:26;;;;;;;5.90;2.30;;;9.20;99.90;;;-141.84;51.35;19578.09;5034435;28;20194;-56
2023/04/19 07:38:54;;;;;;;3.63;2.43;;;9.00;99.90;;;-141.84;51.99;19628.91;5034445;28;20206;-60
2023/04/19 07:41:23;;;;;;;3.13;2.63;;;8.90;99.90;;;-141.84;51.90;19630.94;5034452;28;20205;-59
2023/04/19 07:43:51;;;;;;;4.53;2.40;;;8.80;99.90;;;-141.84;50.85;19612.63;5034272;28;20202;-59
2023/04/19 07:46:19;;;;;;;3.83;2.20;;;8.70;99.90;;;-141.84;51.37;19569.97;5033874;28;20198;-54
2023/04/19 07:48:47;;;;;;;3.17;2.40;;;8.60;99.90;;;-141.84;51.64;19610.59;5034290;28;20631;-57
2023/04/19 07:51:18;;;;;;;4.37;2.63;;;8.50;99.90;;;-141.84;51.51;19588.25;5033959;28;20202;-57
2023/04/19 07:53:48;;;;;;;3.87;2.27;;;8.60;99.90;;;-141.84;51.12;19578.09;5033834;28;20194;-56
2023/04/19 07:56:16;;;;;;;2.93;2.43;;;8.50;99.90;;;-141.84;51.30;19598.41;5034116;28;20208;-55
2023/04/19 07:58:44;;;;;;;3.53;2.67;;;8.60;99.90;;;-141.84;51.78;19596.38;5033512;28;20592;-54
2023/04/19 08:01:23;;;;;;;3.53;2.10;;;8.60;99.90;;;-141.84;52.33;19612.63;5034111;28;20509;-53
2023/04/19 08:03:52;;;;;;;3.83;2.57;;;8.70;99.90;;;-141.84;52.04;19612.63;5034069;28;20260;-54
2023/04/19 08:06:21;;;;;;;4.53;2.47;;;8.80;99.90;;;-141.84;52.29;19614.66;5033676;28;20213;-54
2023/04/19 08:08:50;;;;;;;3.57;2.57;;;8.80;99.90;;;-141.84;52.59;19578.09;5033791;28;20210;-56
2023/04/19 08:11:18;;;;;;;4.27;2.50;;;8.80;99.90;;;-141.84;52.41;19590.28;5034053;28;20577;-54
2023/04/19 08:13:47;;;;;;;3.10;2.60;;;8.80;99.90;;;-141.84;52.06;19614.66;5033788;28;20212;-53
2023/04/19 08:16:33;;;;;;;3.23;2.50;;;8.90;99.90;;;-141.84;51.69;19620.78;5033298;28;20267;-57
2023/04/19 08:19:21;;;;;;;5.60;2.60;;;8.90;99.90;;;-141.84;51.61;19598.41;5034162;28;20182;-57
2023/04/19 08:21:50;;;;;;;4.60;2.60;;;8.90;99.90;;;-141.84;51.67;19622.81;5034132;28;20202;-57
2023/04/19 08:24:19;;;;;;;4.27;2.83;;;8.90;99.90;;;-141.84;51.80;19614.66;5033799;28;20202;-61
2023/04/19 08:26:52;;;;;;;4.43;2.37;;;8.90;99.90;;;-141.84;51.15;19659.38;5033359;28;20708;-60
2023/04/19 08:29:20;;;;;;;5.70;2.27;;;9.00;99.90;;;-141.84;50.33;19669.53;5033613;28;20202;-58
2023/04/19 08:31:49;;;;;;;2.60;2.40;;;9.20;99.90;;;-141.84;50.05;19643.13;5033887;28;20208;-59
2023/04/19 08:34:17;;;;;;;4.13;2.70;;;9.20;99.90;;;-141.84;49.95;19661.41;5033632;28;20195;-56
2023/04/19 08:36:46;;;;;;;3.87;2.50;;;9.20;99.90;;;-141.84;50.19;19667.50;5033404;28;20214;-55
2023/04/19 08:39:32;;;;;;;4.73;2.83;;;9.20;99.90;;;-141.84;49.68;19712.22;5033525;28;20189;-57
2023/04/19 08:42:06;;;;;;;4.03;2.57;;;9.40;99.90;;;-141.84;49.28;19643.13;5033444;28;20186;-56
2023/04/19 08:44:40;;;;;;;3.80;2.47;;;9.40;99.90;;;-141.84;49.67;19651.25;5033161;28;20183;-55
2023/04/19 08:47:31;;;;;;;3.50;2.40;;;9.40;99.90;;;-141.84;50.09;19689.88;5032987;28;20282;-55
2023/04/19 08:50:03;;;;;;;3.90;2.40;;;9.40;99.90;;;-141.84;49.62;19710.19;5032994;28;20222;-54
2023/04/19 08:52:51;;;;;;;2.97;2.43;;;9.60;99.90;;;-141.84;49.16;19740.69;5032754;28;20202;-58
2023/04/19 08:55:31;;;;;;;4.70;2.70;;;9.70;99.90;;;-141.84;49.30;19728.47;5033210;28;20281;-56
2023/04/19 08:58:03;;;;;;;3.30;2.03;;;9.80;99.90;;;-141.84;48.98;19779.28;5032997;28;20581;-59
2023/04/19 09:00:40;;;;;;;4.50;2.60;;;10.00;99.90;;;-141.84;48.76;19765.06;5032728;28;20576;-59
2023/04/19 09:03:08;;;;;;;3.60;2.60;;;10.10;99.90;;;-141.84;49.02;19807.75;5033283;28;20244;-58
2023/04/19 09:05:37;;;;;;;6.23;2.80;;;10.10;99.90;;;-141.84;48.14;19789.44;5032293;28;20293;-58
2023/04/19 09:08:23;;;;;;;3.63;2.50;;;10.30;99.90;;;-141.84;47.96;19799.63;5032234;28;20670;-59
2023/04/19 09:10:58;;;;;;;3.63;2.47;;;10.30;99.90;;;-141.84;48.42;19809.78;5032905;28;20185;-58
2023/04/19 09:13:28;;;;;;;4.00;2.60;;;10.40;99.90;;;-141.84;47.11;19824.00;5032485;28;20641;-56
2023/04/19 09:15:59;;;;;;;3.17;2.70;;;10.40;99.90;;;-141.84;47.10;19821.97;5032564;28;20202;-58
2023/04/19 09:18:27;;;;;;;4.33;2.33;;;10.50;99.90;;;-141.84;47.06;19801.66;5032605;28;20214;-59
2023/04/19 09:21:00;;;;;;;4.53;2.83;;;10.40;99.90;;;-141.84;47.38;19809.78;5032492;28;20568;-54
2023/04/19 09:23:28;;;;;;;3.97;2.63;;;10.40;99.90;;;-141.84;47.19;19872.78;5032576;28;20202;-58
2023/04/19 09:26:00;;;;;;;4.33;2.30;;;10.50;99.90;;;-141.84;46.81;19856.53;5032289;28;20230;-56
2023/04/19 09:28:57;;;;;;;3.60;2.30;;;10.60;99.90;;;-141.84;46.72;19907.31;5032209;28;20309;-56
2023/04/19 09:31:28;;;;;;;3.83;2.80;;;10.80;99.90;;;-141.84;46.57;19874.81;5032115;28;20190;-56
2023/04/19 09:34:18;;;;;;;6.80;2.70;;;10.80;99.90;;;-141.84;47.03;19830.09;5031963;28;20237;-59
2023/04/19 09:36:47;;;;;;;3.90;2.70;;;10.70;99.90;;;-141.84;46.96;19866.69;5031954;28;20194;-57
2023/04/19 09:39:32;;;;;;;3.87;2.90;;;10.80;99.90;;;-141.84;46.00;19919.53;5032258;28;20214;-56
2023/04/19 09:42:02;;;;;;;5.00;2.80;;;10.90;99.90;;;-141.84;44.97;19893.09;5032367;28;20194;-57
2023/04/19 09:44:32;;;;;;;3.07;2.60;;;10.90;99.90;;;-141.84;45.26;19889.03;5031982;28;20213;-55
2023/04/19 09:47:28;;;;;;;4.27;2.80;;;10.80;99.90;;;-141.84;44.20;19923.59;5012580;28;20222;-55
2023/04/19 09:50:06;;;;;;;4.80;2.77;;;10.90;99.90;;;-141.84;44.26;19878.88;5012335;28;20585;-54
2023/04/19 09:52:52;;;;;;;5.00;2.90;;;10.90;99.90;;;-141.84;43.50;19931.72;5012365;28;20273;-58
2023/04/19 09:55:21;;;;;;;4.00;2.63;;;10.90;99.90;;;-141.84;44.00;19915.47;5012365;28;20195;-58
2023/04/19 09:57:56;;;;;;;2.97;2.67;;;11.00;99.90;;;-141.84;43.99;19931.72;5027345;28;20509;-57
2023/04/19 10:00:25;;;;;;;3.57;2.67;;;11.00;99.90;;;-141.84;43.21;19939.84;5029475;28;20202;-56
2023/04/19 10:02:58;;;;;;;3.17;2.53;;;11.20;99.90;;;-141.84;43.45;19943.91;5031104;28;20259;-57
2023/04/19 10:05:26;;;;;;;4.73;2.43;;;11.10;99.90;;;-141.84;43.83;19917.50;5031006;28;20681;-57
2023/04/19 10:07:58;;;;;;;4.00;2.50;;;11.10;99.90;;;-141.84;43.30;19988.63;5038937;28;20669;-57
2023/04/19 10:10:29;;;;;;;4.23;2.53;;;11.20;99.90;;;-141.84;42.97;20019.13;5030394;28;20638;-57
2023/04/19 10:13:13;;;;;;;4.17;2.70;;;11.30;99.90;;;-141.84;42.50;19998.78;5021086;28;20210;-57
2023/04/19 10:15:44;;;;;;;4.70;3.00;;;11.50;99.90;;;-141.84;42.75;20008.94;5038033;28;20243;-58
2023/04/19 10:18:25;;;;;;;3.37;2.97;;;11.50;99.90;;;-141.84;43.01;20006.91;5030860;28;20682;-58
2023/04/19 10:21:01;;;;;;;5.23;3.33;;;11.50;99.90;;;-141.84;43.74;20013.00;5031539;28;20217;-56
2023/04/19 10:23:31;;;;;;;3.97;2.80;;;11.50;99.90;;;-141.84;43.01;20037.41;5031245;28;20186;-59